sensor_id;sensor_type;location;lat;lon;timestamp;temperature;humidity
17998;DHT22;9124;48.144;17.098;2024-03-07T00:03:07;6.20;99.20
17998;DHT22;9124;48.144;17.098;2024-03-07T00:07:34;6.20;99.50
17998;DHT22;9124;48.144;17.098;2024-03-07T00:12:04;6.20;99.90
17998;DHT22;9124;48.144;17.098;2024-03-07T00:16:32;6.10;99.90
17998;DHT22;9124;48.144;17.098;2024-03-07T00:21:00;6.10;99.90
17998;DHT22;9124;48.144;17.098;2024-03-07T00:25:26;6.20;99.90
17998;DHT22;9124;48.144;17.098;2024-03-07T00:29:54;6.20;99.90
17998;DHT22;9124;48.144;17.098;2024-03-07T00:34:20;6.20;99.90
17998;DHT22;9124;48.144;17.098;2024-03-07T00:38:49;6.20;99.90
17998;DHT22;9124;48.144;17.098;2024-03-07T00:43:15;6.20;99.90
17998;DHT22;9124;48.144;17.098;2024-03-07T00:47:41;6.10;99.90
17998;DHT22;9124;48.144;17.098;2024-03-07T00:52:08;6.10;99.90
17998;DHT22;9124;48.144;17.098;2024-03-07T00:56:34;6.10;99.90
17998;DHT22;9124;48.144;17.098;2024-03-07T01:01:02;6.10;99.90
17998;DHT22;9124;48.144;17.098;2024-03-07T01:05:29;6.10;99.90
17998;DHT22;9124;48.144;17.098;2024-03-07T01:09:56;6.10;99.90
17998;DHT22;9124;48.144;17.098;2024-03-07T01:14:27;6.00;99.90
17998;DHT22;9124;48.144;17.098;2024-03-07T01:18:56;6.00;99.90
17998;DHT22;9124;48.144;17.098;2024-03-07T01:23:22;6.00;99.90
17998;DHT22;9124;48.144;17.098;2024-03-07T01:27:49;6.00;99.90
17998;DHT22;9124;48.144;17.098;2024-03-07T01:32:15;6.00;99.90
17998;DHT22;9124;48.144;17.098;2024-03-07T01:36:44;6.00;99.90
17998;DHT22;9124;48.144;17.098;2024-03-07T01:41:10;5.90;99.90
17998;DHT22;9124;48.144;17.098;2024-03-07T01:45:38;5.80;99.90
17998;DHT22;9124;48.144;17.098;2024-03-07T01:50:05;5.70;99.90
17998;DHT22;9124;48.144;17.098;2024-03-07T01:54:32;5.60;99.90
17998;DHT22;9124;48.144;17.098;2024-03-07T01:59:01;5.60;99.90
17998;DHT22;9124;48.144;17.098;2024-03-07T02:03:33;5.60;99.90
17998;DHT22;9124;48.144;17.098;2024-03-07T02:08:02;5.60;99.90
17998;DHT22;9124;48.144;17.098;2024-03-07T02:12:30;5.70;99.90
17998;DHT22;9124;48.144;17.098;2024-03-07T02:16:56;5.70;99.90
17998;DHT22;9124;48.144;17.098;2024-03-07T02:21:23;5.70;99.90
17998;DHT22;9124;48.144;17.098;2024-03-07T02:25:49;5.70;99.90
17998;DHT22;9124;48.144;17.098;2024-03-07T02:30:16;5.70;99.90
17998;DHT22;9124;48.144;17.098;2024-03-07T02:34:45;5.70;99.90
17998;DHT22;9124;48.144;17.098;2024-03-07T02:39:13;5.70;99.90
17998;DHT22;9124;48.144;17.098;2024-03-07T02:43:39;5.70;99.90
17998;DHT22;9124;48.144;17.098;2024-03-07T02:48:06;5.70;99.90
17998;DHT22;9124;48.144;17.098;2024-03-07T02:52:35;5.70;99.90
17998;DHT22;9124;48.144;17.098;2024-03-07T02:57:02;5.60;99.90
17998;DHT22;9124;48.144;17.098;2024-03-07T03:01:28;5.60;99.90
17998;DHT22;9124;48.144;17.098;2024-03-07T03:05:55;5.50;99.90
17998;DHT22;9124;48.144;17.098;2024-03-07T03:10:25;5.50;99.90
17998;DHT22;9124;48.144;17.098;2024-03-07T03:14:59;5.50;99.90
17998;DHT22;9124;48.144;17.098;2024-03-07T03:19:25;5.50;99.90
17998;DHT22;9124;48.144;17.098;2024-03-07T03:23:55;5.50;99.90
17998;DHT22;9124;48.144;17.098;2024-03-07T03:28:21;5.40;99.90
17998;DHT22;9124;48.144;17.098;2024-03-07T03:32:48;5.40;99.90
17998;DHT22;9124;48.144;17.098;2024-03-07T03:37:15;5.30;99.90
17998;DHT22;9124;48.144;17.098;2024-03-07T03:41:43;5.20;99.90
17998;DHT22;9124;48.144;17.098;2024-03-07T03:46:10;5.20;99.90
17998;DHT22;9124;48.144;17.098;2024-03-07T03:50:38;5.30;99.90
17998;DHT22;9124;48.144;17.098;2024-03-07T03:55:05;5.30;99.90
17998;DHT22;9124;48.144;17.098;2024-03-07T03:59:43;5.20;99.90
17998;DHT22;9124;48.144;17.098;2024-03-07T04:04:10;5.20;99.90
17998;DHT22;9124;48.144;17.098;2024-03-07T04:08:37;5.20;99.90
17998;DHT22;9124;48.144;17.098;2024-03-07T04:13:03;5.20;99.90
17998;DHT22;9124;48.144;17.098;2024-03-07T04:17:31;5.20;99.90
17998;DHT22;9124;48.144;17.098;2024-03-07T04:21:58;5.20;99.90
17998;DHT22;9124;48.144;17.098;2024-03-07T04:26:24;5.10;99.90
17998;DHT22;9124;48.144;17.098;2024-03-07T04:30:52;4.90;99.90
17998;DHT22;9124;48.144;17.098;2024-03-07T04:35:19;4.70;99.90
17998;DHT22;9124;48.144;17.098;2024-03-07T04:39:46;4.70;99.90
17998;DHT22;9124;48.144;17.098;2024-03-07T04:44:12;4.60;99.90
17998;DHT22;9124;48.144;17.098;2024-03-07T04:48:39;4.50;99.90
17998;DHT22;9124;48.144;17.098;2024-03-07T04:53:05;4.40;99.90
17998;DHT22;9124;48.144;17.098;2024-03-07T04:57:33;4.20;99.90
17998;DHT22;9124;48.144;17.098;2024-03-07T05:01:59;4.10;99.90
17998;DHT22;9124;48.144;17.098;2024-03-07T05:06:26;4.00;99.90
17998;DHT22;9124;48.144;17.098;2024-03-07T05:10:52;4.00;99.90
17998;DHT22;9124;48.144;17.098;2024-03-07T05:15:18;3.90;99.90
17998;DHT22;9124;48.144;17.098;2024-03-07T05:19:45;3.90;99.90
17998;DHT22;9124;48.144;17.098;2024-03-07T05:24:13;3.90;99.90
17998;DHT22;9124;48.144;17.098;2024-03-07T05:28:39;3.90;99.90
17998;DHT22;9124;48.144;17.098;2024-03-07T05:33:09;3.90;99.90
17998;DHT22;9124;48.144;17.098;2024-03-07T05:37:35;3.90;99.90
17998;DHT22;9124;48.144;17.098;2024-03-07T05:42:03;3.90;99.90
17998;DHT22;9124;48.144;17.098;2024-03-07T05:46:30;4.00;99.90
17998;DHT22;9124;48.144;17.098;2024-03-07T05:50:58;4.00;99.90
17998;DHT22;9124;48.144;17.098;2024-03-07T05:55:24;4.20;99.90
17998;DHT22;9124;48.144;17.098;2024-03-07T05:59:52;4.30;99.90
17998;DHT22;9124;48.144;17.098;2024-03-07T06:04:18;4.50;99.90
17998;DHT22;9124;48.144;17.098;2024-03-07T06:08:46;4.80;99.90
17998;DHT22;9124;48.144;17.098;2024-03-07T06:13:13;4.90;99.90
17998;DHT22;9124;48.144;17.098;2024-03-07T06:17:42;5.10;99.90
17998;DHT22;9124;48.144;17.098;2024-03-07T06:22:12;5.20;99.90
17998;DHT22;9124;48.144;17.098;2024-03-07T06:26:39;5.30;99.90
17998;DHT22;9124;48.144;17.098;2024-03-07T06:31:16;5.40;99.90
17998;DHT22;9124;48.144;17.098;2024-03-07T06:35:43;5.40;99.90
17998;DHT22;9124;48.144;17.098;2024-03-07T06:40:11;5.50;99.90
17998;DHT22;9124;48.144;17.098;2024-03-07T06:44:38;5.60;99.90
17998;DHT22;9124;48.144;17.098;2024-03-07T06:49:05;5.70;99.90
17998;DHT22;9124;48.144;17.098;2024-03-07T06:53:35;5.80;99.90
17998;DHT22;9124;48.144;17.098;2024-03-07T06:58:05;5.90;99.90
17998;DHT22;9124;48.144;17.098;2024-03-07T07:02:31;6.00;99.90
17998;DHT22;9124;48.144;17.098;2024-03-07T07:06:59;6.10;99.90
17998;DHT22;9124;48.144;17.098;2024-03-07T07:11:26;6.20;99.90
17998;DHT22;9124;48.144;17.098;2024-03-07T07:15:56;6.30;99.90
17998;DHT22;9124;48.144;17.098;2024-03-07T07:20:22;6.30;99.90
17998;DHT22;9124;48.144;17.098;2024-03-07T07:24:50;6.30;99.90
17998;DHT22;9124;48.144;17.098;2024-03-07T07:29:16;6.50;99.90
17998;DHT22;9124;48.144;17.098;2024-03-07T07:33:44;6.60;99.90
17998;DHT22;9124;48.144;17.098;2024-03-07T07:38:10;6.80;99.90
17998;DHT22;9124;48.144;17.098;2024-03-07T07:42:39;7.10;99.90
17998;DHT22;9124;48.144;17.098;2024-03-07T07:47:05;7.30;99.90
17998;DHT22;9124;48.144;17.098;2024-03-07T07:51:32;7.40;99.90
17998;DHT22;9124;48.144;17.098;2024-03-07T07:55:58;7.60;99.90
17998;DHT22;9124;48.144;17.098;2024-03-07T08:00:28;7.60;99.90
17998;DHT22;9124;48.144;17.098;2024-03-07T08:04:57;7.70;99.90
17998;DHT22;9124;48.144;17.098;2024-03-07T08:09:27;7.80;99.90
17998;DHT22;9124;48.144;17.098;2024-03-07T08:13:53;7.90;99.90
17998;DHT22;9124;48.144;17.098;2024-03-07T08:18:20;8.20;99.90
17998;DHT22;9124;48.144;17.098;2024-03-07T08:22:48;8.40;99.90
17998;DHT22;9124;48.144;17.098;2024-03-07T08:27:17;9.20;99.90
17998;DHT22;9124;48.144;17.098;2024-03-07T08:31:44;9.20;99.90
17998;DHT22;9124;48.144;17.098;2024-03-07T08:36:10;8.90;98.80
17998;DHT22;9124;48.144;17.098;2024-03-07T08:40:37;8.50;97.70
17998;DHT22;9124;48.144;17.098;2024-03-07T08:45:04;8.50;97.40
17998;DHT22;9124;48.144;17.098;2024-03-07T08:49:32;8.50;96.00
17998;DHT22;9124;48.144;17.098;2024-03-07T08:53:58;8.40;95.70
17998;DHT22;9124;48.144;17.098;2024-03-07T08:58:25;8.40;95.30
17998;DHT22;9124;48.144;17.098;2024-03-07T09:02:52;8.50;95.10
17998;DHT22;9124;48.144;17.098;2024-03-07T09:07:20;8.60;94.70
17998;DHT22;9124;48.144;17.098;2024-03-07T09:11:46;8.60;94.10
17998;DHT22;9124;48.144;17.098;2024-03-07T09:16:14;8.50;93.40
17998;DHT22;9124;48.144;17.098;2024-03-07T09:20:40;8.60;93.40
17998;DHT22;9124;48.144;17.098;2024-03-07T09:25:08;8.80;93.00
17998;DHT22;9124;48.144;17.098;2024-03-07T09:29:34;9.10;93.10
17998;DHT22;9124;48.144;17.098;2024-03-07T09:34:00;9.40;91.70
17998;DHT22;9124;48.144;17.098;2024-03-07T09:38:27;9.40;90.50
17998;DHT22;9124;48.144;17.098;2024-03-07T09:42:54;9.40;90.20
17998;DHT22;9124;48.144;17.098;2024-03-07T09:47:22;9.40;90.20
17998;DHT22;9124;48.144;17.098;2024-03-07T09:51:51;9.40;89.40
17998;DHT22;9124;48.144;17.098;2024-03-07T09:56:21;9.30;87.30
17998;DHT22;9124;48.144;17.098;2024-03-07T10:00:51;9.10;87.10
17998;DHT22;9124;48.144;17.098;2024-03-07T10:05:20;8.90;86.40
17998;DHT22;9124;48.144;17.098;2024-03-07T10:09:49;8.70;86.60
17998;DHT22;9124;48.144;17.098;2024-03-07T10:14:17;8.70;86.70
17998;DHT22;9124;48.144;17.098;2024-03-07T10:18:44;8.60;86.20
17998;DHT22;9124;48.144;17.098;2024-03-07T10:23:12;8.40;85.60
17998;DHT22;9124;48.144;17.098;2024-03-07T10:27:46;8.40;85.60
17998;DHT22;9124;48.144;17.098;2024-03-07T10:32:19;8.50;85.80
17998;DHT22;9124;48.144;17.098;2024-03-07T10:36:46;8.60;85.80
17998;DHT22;9124;48.144;17.098;2024-03-07T10:41:13;8.70;85.70
17998;DHT22;9124;48.144;17.098;2024-03-07T10:45:45;8.90;85.60
17998;DHT22;9124;48.144;17.098;2024-03-07T10:55:12;9.40;85.60
17998;DHT22;9124;48.144;17.098;2024-03-07T10:59:50;9.80;84.70
17998;DHT22;9124;48.144;17.098;2024-03-07T11:04:23;10.10;83.60
17998;DHT22;9124;48.144;17.098;2024-03-07T11:08:52;10.30;82.30
17998;DHT22;9124;48.144;17.098;2024-03-07T11:13:19;10.40;81.40
17998;DHT22;9124;48.144;17.098;2024-03-07T11:17:47;10.20;80.40
17998;DHT22;9124;48.144;17.098;2024-03-07T11:22:34;9.90;79.70
17998;DHT22;9124;48.144;17.098;2024-03-07T11:27:04;9.50;79.70
17998;DHT22;9124;48.144;17.098;2024-03-07T11:31:55;9.50;80.60
17998;DHT22;9124;48.144;17.098;2024-03-07T11:36:53;9.20;80.20
17998;DHT22;9124;48.144;17.098;2024-03-07T11:41:21;8.90;80.20
17998;DHT22;9124;48.144;17.098;2024-03-07T11:45:49;8.70;80.30
17998;DHT22;9124;48.144;17.098;2024-03-07T11:50:18;8.60;80.80
17998;DHT22;9124;48.144;17.098;2024-03-07T11:54:46;8.70;81.40
17998;DHT22;9124;48.144;17.098;2024-03-07T11:59:12;9.30;82.00
17998;DHT22;9124;48.144;17.098;2024-03-07T12:03:39;10.00;81.40
17998;DHT22;9124;48.144;17.098;2024-03-07T12:08:07;10.30;80.10
17998;DHT22;9124;48.144;17.098;2024-03-07T12:12:36;10.20;79.30
17998;DHT22;9124;48.144;17.098;2024-03-07T12:17:05;9.90;78.40
17998;DHT22;9124;48.144;17.098;2024-03-07T12:21:32;9.60;78.20
17998;DHT22;9124;48.144;17.098;2024-03-07T12:26:00;9.30;77.90
17998;DHT22;9124;48.144;17.098;2024-03-07T12:30:33;9.20;78.20
17998;DHT22;9124;48.144;17.098;2024-03-07T12:35:01;9.30;78.40
17998;DHT22;9124;48.144;17.098;2024-03-07T12:39:35;9.50;78.60
17998;DHT22;9124;48.144;17.098;2024-03-07T12:44:05;9.80;78.30
17998;DHT22;9124;48.144;17.098;2024-03-07T12:48:38;9.80;77.50
17998;DHT22;9124;48.144;17.098;2024-03-07T12:53:04;9.70;77.20
17998;DHT22;9124;48.144;17.098;2024-03-07T12:57:32;9.90;77.30
17998;DHT22;9124;48.144;17.098;2024-03-07T13:01:58;10.10;77.60
17998;DHT22;9124;48.144;17.098;2024-03-07T13:06:28;10.30;76.40
17998;DHT22;9124;48.144;17.098;2024-03-07T13:10:56;10.20;75.60
17998;DHT22;9124;48.144;17.098;2024-03-07T13:15:25;10.00;75.30
17998;DHT22;9124;48.144;17.098;2024-03-07T13:19:52;9.70;75.30
17998;DHT22;9124;48.144;17.098;2024-03-07T13:24:27;9.50;75.60
17998;DHT22;9124;48.144;17.098;2024-03-07T13:28:55;9.20;75.50
17998;DHT22;9124;48.144;17.098;2024-03-07T13:33:21;9.00;75.90
17998;DHT22;9124;48.144;17.098;2024-03-07T13:37:51;8.90;76.30
17998;DHT22;9124;48.144;17.098;2024-03-07T13:42:17;9.00;76.80
17998;DHT22;9124;48.144;17.098;2024-03-07T13:46:46;9.10;76.80
17998;DHT22;9124;48.144;17.098;2024-03-07T13:51:12;9.30;77.10
17998;DHT22;9124;48.144;17.098;2024-03-07T14:09:50;9.50;76.90
17998;DHT22;9124;48.144;17.098;2024-03-07T14:25:18;9.10;77.10
17998;DHT22;9124;48.144;17.098;2024-03-07T14:38:58;8.90;77.60
17998;DHT22;9124;48.144;17.098;2024-03-07T14:43:24;8.70;77.90
17998;DHT22;9124;48.144;17.098;2024-03-07T14:47:52;8.50;78.20
17998;DHT22;9124;48.144;17.098;2024-03-07T14:52:18;8.50;78.70
17998;DHT22;9124;48.144;17.098;2024-03-07T14:56:48;8.40;79.10
17998;DHT22;9124;48.144;17.098;2024-03-07T15:01:15;8.60;79.50
17998;DHT22;9124;48.144;17.098;2024-03-07T15:05:45;8.60;79.60
17998;DHT22;9124;48.144;17.098;2024-03-07T15:10:24;8.60;79.60
17998;DHT22;9124;48.144;17.098;2024-03-07T15:14:53;8.40;79.50
17998;DHT22;9124;48.144;17.098;2024-03-07T15:19:19;8.40;79.70
17998;DHT22;9124;48.144;17.098;2024-03-07T15:23:46;8.20;79.70
17998;DHT22;9124;48.144;17.098;2024-03-07T15:28:13;8.20;80.10
17998;DHT22;9124;48.144;17.098;2024-03-07T15:32:42;8.10;80.30
17998;DHT22;9124;48.144;17.098;2024-03-07T15:37:09;8.10;80.50
17998;DHT22;9124;48.144;17.098;2024-03-07T15:41:38;8.00;80.60
17998;DHT22;9124;48.144;17.098;2024-03-07T15:46:04;7.90;80.70
17998;DHT22;9124;48.144;17.098;2024-03-07T15:50:32;7.80;80.90
17998;DHT22;9124;48.144;17.098;2024-03-07T15:54:59;7.70;81.00
17998;DHT22;9124;48.144;17.098;2024-03-07T15:59:29;7.60;81.40
17998;DHT22;9124;48.144;17.098;2024-03-07T16:03:55;7.50;81.80
17998;DHT22;9124;48.144;17.098;2024-03-07T16:08:24;7.50;82.00
17998;DHT22;9124;48.144;17.098;2024-03-07T16:12:52;7.40;82.40
17998;DHT22;9124;48.144;17.098;2024-03-07T16:17:22;7.30;82.60
17998;DHT22;9124;48.144;17.098;2024-03-07T16:21:49;7.30;83.00
17998;DHT22;9124;48.144;17.098;2024-03-07T16:26:15;7.20;83.20
17998;DHT22;9124;48.144;17.098;2024-03-07T16:30:43;7.10;83.50
17998;DHT22;9124;48.144;17.098;2024-03-07T16:35:13;7.00;83.90
17998;DHT22;9124;48.144;17.098;2024-03-07T16:39:42;7.00;84.40
17998;DHT22;9124;48.144;17.098;2024-03-07T16:44:11;7.00;84.70
17998;DHT22;9124;48.144;17.098;2024-03-07T16:48:40;6.90;85.00
17998;DHT22;9124;48.144;17.098;2024-03-07T16:53:07;6.80;85.30
17998;DHT22;9124;48.144;17.098;2024-03-07T16:57:46;6.80;85.70
17998;DHT22;9124;48.144;17.098;2024-03-07T17:02:13;6.70;86.20
17998;DHT22;9124;48.144;17.098;2024-03-07T17:06:39;6.70;86.50
17998;DHT22;9124;48.144;17.098;2024-03-07T17:11:06;6.60;87.10
17998;DHT22;9124;48.144;17.098;2024-03-07T17:15:33;6.60;87.70
17998;DHT22;9124;48.144;17.098;2024-03-07T17:20:00;6.60;88.30
17998;DHT22;9124;48.144;17.098;2024-03-07T17:24:26;6.50;88.80
17998;DHT22;9124;48.144;17.098;2024-03-07T17:28:53;6.50;89.30
17998;DHT22;9124;48.144;17.098;2024-03-07T17:33:19;6.50;90.00
17998;DHT22;9124;48.144;17.098;2024-03-07T17:37:48;6.50;90.20
17998;DHT22;9124;48.144;17.098;2024-03-07T17:42:16;6.40;90.50
17998;DHT22;9124;48.144;17.098;2024-03-07T17:46:43;6.40;90.70
17998;DHT22;9124;48.144;17.098;2024-03-07T17:51:12;6.30;91.10
17998;DHT22;9124;48.144;17.098;2024-03-07T17:55:40;6.30;91.40
17998;DHT22;9124;48.144;17.098;2024-03-07T18:00:11;6.30;91.80
17998;DHT22;9124;48.144;17.098;2024-03-07T18:04:43;6.20;92.10
17998;DHT22;9124;48.144;17.098;2024-03-07T18:09:15;6.20;92.50
17998;DHT22;9124;48.144;17.098;2024-03-07T18:13:54;6.10;92.90
17998;DHT22;9124;48.144;17.098;2024-03-07T18:18:21;6.10;93.20
17998;DHT22;9124;48.144;17.098;2024-03-07T18:22:50;6.10;93.70
17998;DHT22;9124;48.144;17.098;2024-03-07T18:27:16;6.10;93.90
17998;DHT22;9124;48.144;17.098;2024-03-07T18:31:49;6.00;94.30
17998;DHT22;9124;48.144;17.098;2024-03-07T18:36:15;6.00;94.60
17998;DHT22;9124;48.144;17.098;2024-03-07T18:40:45;6.00;94.80
17998;DHT22;9124;48.144;17.098;2024-03-07T18:45:14;5.90;95.10
17998;DHT22;9124;48.144;17.098;2024-03-07T18:49:46;5.80;95.50
17998;DHT22;9124;48.144;17.098;2024-03-07T18:54:17;5.80;95.90
17998;DHT22;9124;48.144;17.098;2024-03-07T18:58:46;5.70;96.30
17998;DHT22;9124;48.144;17.098;2024-03-07T19:03:16;5.70;96.60
17998;DHT22;9124;48.144;17.098;2024-03-07T19:07:45;5.70;96.80
17998;DHT22;9124;48.144;17.098;2024-03-07T19:12:11;5.70;97.10
17998;DHT22;9124;48.144;17.098;2024-03-07T19:16:38;5.70;97.40
17998;DHT22;9124;48.144;17.098;2024-03-07T19:21:05;5.70;97.70
17998;DHT22;9124;48.144;17.098;2024-03-07T19:25:40;5.70;97.80
17998;DHT22;9124;48.144;17.098;2024-03-07T19:30:07;5.70;98.10
17998;DHT22;9124;48.144;17.098;2024-03-07T19:34:34;5.70;98.30
17998;DHT22;9124;48.144;17.098;2024-03-07T19:39:00;5.60;98.60
17998;DHT22;9124;48.144;17.098;2024-03-07T19:43:38;5.60;98.80
17998;DHT22;9124;48.144;17.098;2024-03-07T19:48:05;5.60;99.10
17998;DHT22;9124;48.144;17.098;2024-03-07T19:52:31;5.60;99.40
17998;DHT22;9124;48.144;17.098;2024-03-07T19:56:58;5.60;99.40
17998;DHT22;9124;48.144;17.098;2024-03-07T20:01:33;5.60;99.70
17998;DHT22;9124;48.144;17.098;2024-03-07T20:06:00;5.70;99.90
17998;DHT22;9124;48.144;17.098;2024-03-07T20:10:30;5.60;99.90
17998;DHT22;9124;48.144;17.098;2024-03-07T20:14:58;5.60;99.90
17998;DHT22;9124;48.144;17.098;2024-03-07T20:19:25;5.60;99.90
17998;DHT22;9124;48.144;17.098;2024-03-07T20:23:55;5.60;99.90
17998;DHT22;9124;48.144;17.098;2024-03-07T20:28:24;5.60;99.90
17998;DHT22;9124;48.144;17.098;2024-03-07T20:32:51;5.60;99.90
17998;DHT22;9124;48.144;17.098;2024-03-07T20:37:18;5.60;99.90
17998;DHT22;9124;48.144;17.098;2024-03-07T20:41:50;5.60;99.90
17998;DHT22;9124;48.144;17.098;2024-03-07T20:46:17;5.60;99.90
17998;DHT22;9124;48.144;17.098;2024-03-07T20:50:46;5.60;99.90
17998;DHT22;9124;48.144;17.098;2024-03-07T20:55:14;5.70;99.90
17998;DHT22;9124;48.144;17.098;2024-03-07T20:59:45;5.60;99.90
17998;DHT22;9124;48.144;17.098;2024-03-07T21:04:11;5.60;99.90
17998;DHT22;9124;48.144;17.098;2024-03-07T21:08:39;5.60;99.90
17998;DHT22;9124;48.144;17.098;2024-03-07T21:13:07;5.60;99.90
17998;DHT22;9124;48.144;17.098;2024-03-07T21:17:36;5.60;99.90
17998;DHT22;9124;48.144;17.098;2024-03-07T21:22:03;5.60;99.90
17998;DHT22;9124;48.144;17.098;2024-03-07T21:26:29;5.60;99.90
17998;DHT22;9124;48.144;17.098;2024-03-07T21:30:56;5.60;99.90
17998;DHT22;9124;48.144;17.098;2024-03-07T21:35:24;5.50;99.90
17998;DHT22;9124;48.144;17.098;2024-03-07T21:39:53;5.50;99.90
17998;DHT22;9124;48.144;17.098;2024-03-07T21:44:20;5.60;99.90
17998;DHT22;9124;48.144;17.098;2024-03-07T21:48:49;5.50;99.90
17998;DHT22;9124;48.144;17.098;2024-03-07T21:53:15;5.60;99.90
17998;DHT22;9124;48.144;17.098;2024-03-07T21:57:42;5.60;99.90
17998;DHT22;9124;48.144;17.098;2024-03-07T22:02:08;5.70;99.90
17998;DHT22;9124;48.144;17.098;2024-03-07T22:06:44;5.80;99.90
17998;DHT22;9124;48.144;17.098;2024-03-07T22:11:14;5.90;99.90
17998;DHT22;9124;48.144;17.098;2024-03-07T22:15:43;5.90;99.90
17998;DHT22;9124;48.144;17.098;2024-03-07T22:20:16;6.00;99.90
17998;DHT22;9124;48.144;17.098;2024-03-07T22:24:45;6.00;99.90
17998;DHT22;9124;48.144;17.098;2024-03-07T22:29:11;5.90;99.90
17998;DHT22;9124;48.144;17.098;2024-03-07T22:33:38;5.80;99.90
17998;DHT22;9124;48.144;17.098;2024-03-07T22:38:05;5.70;99.90
17998;DHT22;9124;48.144;17.098;2024-03-07T22:42:34;5.70;99.90
17998;DHT22;9124;48.144;17.098;2024-03-07T22:47:03;5.50;99.90
17998;DHT22;9124;48.144;17.098;2024-03-07T22:51:31;5.50;99.90
17998;DHT22;9124;48.144;17.098;2024-03-07T22:55:58;5.40;99.90
17998;DHT22;9124;48.144;17.098;2024-03-07T23:00:24;5.40;99.90
17998;DHT22;9124;48.144;17.098;2024-03-07T23:05:03;5.40;99.90
17998;DHT22;9124;48.144;17.098;2024-03-07T23:09:29;5.30;99.90
17998;DHT22;9124;48.144;17.098;2024-03-07T23:13:56;5.30;99.90
17998;DHT22;9124;48.144;17.098;2024-03-07T23:18:22;5.20;99.90
17998;DHT22;9124;48.144;17.098;2024-03-07T23:22:52;5.20;99.90
17998;DHT22;9124;48.144;17.098;2024-03-07T23:27:20;5.20;99.90
17998;DHT22;9124;48.144;17.098;2024-03-07T23:31:50;5.10;99.90
17998;DHT22;9124;48.144;17.098;2024-03-07T23:36:17;5.10;99.90
17998;DHT22;9124;48.144;17.098;2024-03-07T23:40:44;5.10;99.90
17998;DHT22;9124;48.144;17.098;2024-03-07T23:45:11;5.20;99.90
17998;DHT22;9124;48.144;17.098;2024-03-07T23:50:01;5.10;99.90
17998;DHT22;9124;48.144;17.098;2024-03-07T23:54:28;5.10;99.90
17998;DHT22;9124;48.144;17.098;2024-03-07T23:58:54;5.10;99.90
